sensor_id;sensor_type;location;lat;lon;timestamp;P1;durP1;ratioP1;P2;durP2;ratioP2
13891;SDS011;7016;48.172;8.058;2022-08-19T00:01:15;25.25;;;16.27;;
13891;SDS011;7016;48.172;8.058;2022-08-19T00:03:41;25.38;;;15.15;;
13891;SDS011;7016;48.172;8.058;2022-08-19T00:06:06;16.40;;;14.05;;
13891;SDS011;7016;48.172;8.058;2022-08-19T00:08:32;14.23;;;12.18;;
13891;SDS011;7016;48.172;8.058;2022-08-19T00:10:59;14.32;;;12.63;;
13891;SDS011;7016;48.172;8.058;2022-08-19T00:13:24;13.48;;;11.90;;
13891;SDS011;7016;48.172;8.058;2022-08-19T00:15:50;15.15;;;10.50;;
13891;SDS011;7016;48.172;8.058;2022-08-19T00:18:16;10.68;;;9.57;;
13891;SDS011;7016;48.172;8.058;2022-08-19T00:20:42;10.15;;;8.82;;
13891;SDS011;7016;48.172;8.058;2022-08-19T00:23:08;12.77;;;10.73;;
13891;SDS011;7016;48.172;8.058;2022-08-19T00:25:34;15.98;;;13.65;;
13891;SDS011;7016;48.172;8.058;2022-08-19T00:28:01;18.98;;;13.98;;
13891;SDS011;7016;48.172;8.058;2022-08-19T00:30:27;17.20;;;13.32;;
13891;SDS011;7016;48.172;8.058;2022-08-19T00:32:53;15.80;;;13.02;;
13891;SDS011;7016;48.172;8.058;2022-08-19T00:35:20;34.72;;;18.08;;
13891;SDS011;7016;48.172;8.058;2022-08-19T00:37:47;22.77;;;15.23;;
13891;SDS011;7016;48.172;8.058;2022-08-19T00:40:14;23.00;;;15.75;;
13891;SDS011;7016;48.172;8.058;2022-08-19T00:42:40;47.30;;;16.33;;
13891;SDS011;7016;48.172;8.058;2022-08-19T00:45:26;187.90;;;25.00;;
13891;SDS011;7016;48.172;8.058;2022-08-19T00:47:55;32.08;;;16.95;;
13891;SDS011;7016;48.172;8.058;2022-08-19T00:50:21;18.95;;;14.57;;
13891;SDS011;7016;48.172;8.058;2022-08-19T00:52:49;49.00;;;20.77;;
13891;SDS011;7016;48.172;8.058;2022-08-19T00:55:18;21.80;;;15.95;;
13891;SDS011;7016;48.172;8.058;2022-08-19T00:57:53;33.60;;;18.40;;
13891;SDS011;7016;48.172;8.058;2022-08-19T01:00:23;21.88;;;15.82;;
13891;SDS011;7016;48.172;8.058;2022-08-19T01:02:50;22.48;;;15.57;;
13891;SDS011;7016;48.172;8.058;2022-08-19T01:05:20;17.08;;;14.90;;
13891;SDS011;7016;48.172;8.058;2022-08-19T01:07:48;30.75;;;18.70;;
13891;SDS011;7016;48.172;8.058;2022-08-19T01:10:18;39.95;;;20.85;;
13891;SDS011;7016;48.172;8.058;2022-08-19T01:12:46;36.15;;;19.88;;
13891;SDS011;7016;48.172;8.058;2022-08-19T01:15:14;31.20;;;18.90;;
13891;SDS011;7016;48.172;8.058;2022-08-19T01:17:44;40.53;;;21.98;;
13891;SDS011;7016;48.172;8.058;2022-08-19T01:20:13;32.08;;;18.17;;
13891;SDS011;7016;48.172;8.058;2022-08-19T01:22:46;23.48;;;15.20;;
13891;SDS011;7016;48.172;8.058;2022-08-19T01:25:15;22.75;;;15.02;;
13891;SDS011;7016;48.172;8.058;2022-08-19T01:27:43;17.20;;;13.70;;
13891;SDS011;7016;48.172;8.058;2022-08-19T01:30:13;19.55;;;13.68;;
13891;SDS011;7016;48.172;8.058;2022-08-19T01:32:45;20.48;;;13.15;;
13891;SDS011;7016;48.172;8.058;2022-08-19T01:35:11;14.70;;;12.57;;
13891;SDS011;7016;48.172;8.058;2022-08-19T01:37:42;15.95;;;12.18;;
13891;SDS011;7016;48.172;8.058;2022-08-19T01:40:13;12.48;;;10.65;;
13891;SDS011;7016;48.172;8.058;2022-08-19T01:42:38;11.98;;;10.60;;
13891;SDS011;7016;48.172;8.058;2022-08-19T01:45:07;12.52;;;10.95;;
13891;SDS011;7016;48.172;8.058;2022-08-19T01:47:35;15.88;;;11.50;;
13891;SDS011;7016;48.172;8.058;2022-08-19T01:50:02;14.77;;;12.10;;
13891;SDS011;7016;48.172;8.058;2022-08-19T01:52:29;17.58;;;12.60;;
13891;SDS011;7016;48.172;8.058;2022-08-19T01:54:55;14.75;;;11.80;;
13891;SDS011;7016;48.172;8.058;2022-08-19T01:57:21;17.60;;;13.48;;
13891;SDS011;7016;48.172;8.058;2022-08-19T01:59:47;18.15;;;13.20;;
13891;SDS011;7016;48.172;8.058;2022-08-19T02:02:12;24.13;;;15.85;;
13891;SDS011;7016;48.172;8.058;2022-08-19T02:04:38;17.10;;;12.48;;
13891;SDS011;7016;48.172;8.058;2022-08-19T02:07:05;20.90;;;14.25;;
13891;SDS011;7016;48.172;8.058;2022-08-19T02:09:32;18.85;;;13.98;;
13891;SDS011;7016;48.172;8.058;2022-08-19T02:11:59;18.15;;;12.07;;
13891;SDS011;7016;48.172;8.058;2022-08-19T02:14:24;14.77;;;11.68;;
13891;SDS011;7016;48.172;8.058;2022-08-19T02:16:50;19.45;;;13.40;;
13891;SDS011;7016;48.172;8.058;2022-08-19T02:19:16;18.10;;;14.57;;
13891;SDS011;7016;48.172;8.058;2022-08-19T02:21:42;22.05;;;15.95;;
13891;SDS011;7016;48.172;8.058;2022-08-19T02:24:08;18.30;;;15.52;;
13891;SDS011;7016;48.172;8.058;2022-08-19T02:26:34;17.25;;;14.75;;
13891;SDS011;7016;48.172;8.058;2022-08-19T02:29:00;22.52;;;16.65;;
13891;SDS011;7016;48.172;8.058;2022-08-19T02:31:26;18.15;;;14.57;;
13891;SDS011;7016;48.172;8.058;2022-08-19T02:33:53;16.75;;;14.30;;
13891;SDS011;7016;48.172;8.058;2022-08-19T02:36:20;23.05;;;15.18;;
13891;SDS011;7016;48.172;8.058;2022-08-19T02:38:47;24.00;;;17.33;;
13891;SDS011;7016;48.172;8.058;2022-08-19T02:41:14;23.25;;;17.52;;
13891;SDS011;7016;48.172;8.058;2022-08-19T02:43:46;24.92;;;17.77;;
13891;SDS011;7016;48.172;8.058;2022-08-19T02:46:13;25.35;;;17.48;;
13891;SDS011;7016;48.172;8.058;2022-08-19T02:48:46;25.30;;;19.05;;
13891;SDS011;7016;48.172;8.058;2022-08-19T02:51:21;30.00;;;20.05;;
13891;SDS011;7016;48.172;8.058;2022-08-19T02:53:52;30.70;;;19.80;;
13891;SDS011;7016;48.172;8.058;2022-08-19T02:56:18;26.70;;;19.38;;
13891;SDS011;7016;48.172;8.058;2022-08-19T02:58:44;22.60;;;17.30;;
13891;SDS011;7016;48.172;8.058;2022-08-19T03:01:11;24.60;;;17.80;;
13891;SDS011;7016;48.172;8.058;2022-08-19T03:03:44;24.52;;;18.23;;
13891;SDS011;7016;48.172;8.058;2022-08-19T03:06:12;27.30;;;18.65;;
13891;SDS011;7016;48.172;8.058;2022-08-19T03:08:40;24.80;;;18.85;;
13891;SDS011;7016;48.172;8.058;2022-08-19T03:11:18;24.92;;;18.27;;
13891;SDS011;7016;48.172;8.058;2022-08-19T03:13:46;24.83;;;18.15;;
13891;SDS011;7016;48.172;8.058;2022-08-19T03:16:14;24.23;;;18.13;;
13891;SDS011;7016;48.172;8.058;2022-08-19T03:18:41;23.27;;;17.70;;
13891;SDS011;7016;48.172;8.058;2022-08-19T03:21:07;26.38;;;19.48;;
13891;SDS011;7016;48.172;8.058;2022-08-19T03:23:33;29.13;;;19.88;;
13891;SDS011;7016;48.172;8.058;2022-08-19T03:26:02;33.55;;;22.75;;
13891;SDS011;7016;48.172;8.058;2022-08-19T03:28:30;30.52;;;21.67;;
13891;SDS011;7016;48.172;8.058;2022-08-19T03:30:58;32.63;;;22.00;;
13891;SDS011;7016;48.172;8.058;2022-08-19T03:33:29;34.45;;;22.48;;
13891;SDS011;7016;48.172;8.058;2022-08-19T03:36:16;35.25;;;22.65;;
13891;SDS011;7016;48.172;8.058;2022-08-19T03:38:51;26.25;;;19.08;;
13891;SDS011;7016;48.172;8.058;2022-08-19T03:41:23;35.13;;;23.02;;
13891;SDS011;7016;48.172;8.058;2022-08-19T03:43:51;25.88;;;20.15;;
13891;SDS011;7016;48.172;8.058;2022-08-19T03:46:22;29.33;;;21.55;;
13891;SDS011;7016;48.172;8.058;2022-08-19T03:48:53;26.90;;;20.75;;
13891;SDS011;7016;48.172;8.058;2022-08-19T03:53:47;29.45;;;21.02;;
13891;SDS011;7016;48.172;8.058;2022-08-19T03:56:14;28.38;;;21.42;;
13891;SDS011;7016;48.172;8.058;2022-08-19T03:58:40;29.05;;;20.17;;
13891;SDS011;7016;48.172;8.058;2022-08-19T04:01:10;27.45;;;20.17;;
13891;SDS011;7016;48.172;8.058;2022-08-19T04:03:38;33.22;;;22.38;;
13891;SDS011;7016;48.172;8.058;2022-08-19T04:08:38;36.63;;;22.83;;
13891;SDS011;7016;48.172;8.058;2022-08-19T04:11:09;31.90;;;22.75;;
13891;SDS011;7016;48.172;8.058;2022-08-19T04:13:36;31.85;;;23.55;;
13891;SDS011;7016;48.172;8.058;2022-08-19T04:16:03;34.10;;;22.60;;
13891;SDS011;7016;48.172;8.058;2022-08-19T04:18:29;35.70;;;24.33;;
13891;SDS011;7016;48.172;8.058;2022-08-19T04:20:56;33.63;;;22.65;;
13891;SDS011;7016;48.172;8.058;2022-08-19T04:23:22;31.83;;;22.52;;
13891;SDS011;7016;48.172;8.058;2022-08-19T04:25:48;39.22;;;26.15;;
13891;SDS011;7016;48.172;8.058;2022-08-19T04:28:17;50.05;;;30.30;;
13891;SDS011;7016;48.172;8.058;2022-08-19T04:30:43;43.67;;;28.73;;
13891;SDS011;7016;48.172;8.058;2022-08-19T04:33:13;43.97;;;29.05;;
13891;SDS011;7016;48.172;8.058;2022-08-19T04:35:41;41.78;;;28.00;;
13891;SDS011;7016;48.172;8.058;2022-08-19T04:38:10;39.40;;;26.63;;
13891;SDS011;7016;48.172;8.058;2022-08-19T04:40:45;34.63;;;25.65;;
13891;SDS011;7016;48.172;8.058;2022-08-19T04:43:32;43.80;;;27.75;;
13891;SDS011;7016;48.172;8.058;2022-08-19T04:46:09;45.03;;;27.90;;
13891;SDS011;7016;48.172;8.058;2022-08-19T04:48:36;41.33;;;27.65;;
13891;SDS011;7016;48.172;8.058;2022-08-19T04:51:06;47.03;;;29.67;;
13891;SDS011;7016;48.172;8.058;2022-08-19T04:53:35;39.03;;;27.10;;
13891;SDS011;7016;48.172;8.058;2022-08-19T04:56:21;40.05;;;27.23;;
13891;SDS011;7016;48.172;8.058;2022-08-19T04:58:48;37.70;;;28.27;;
13891;SDS011;7016;48.172;8.058;2022-08-19T05:01:21;49.03;;;31.63;;
13891;SDS011;7016;48.172;8.058;2022-08-19T05:03:51;53.80;;;32.33;;
13891;SDS011;7016;48.172;8.058;2022-08-19T05:06:18;57.40;;;32.78;;
13891;SDS011;7016;48.172;8.058;2022-08-19T05:08:46;48.63;;;31.98;;
13891;SDS011;7016;48.172;8.058;2022-08-19T05:11:14;45.83;;;30.60;;
13891;SDS011;7016;48.172;8.058;2022-08-19T05:13:45;47.58;;;31.63;;
13891;SDS011;7016;48.172;8.058;2022-08-19T05:16:13;38.38;;;27.23;;
13891;SDS011;7016;48.172;8.058;2022-08-19T05:18:41;37.22;;;28.23;;
13891;SDS011;7016;48.172;8.058;2022-08-19T05:21:26;38.35;;;26.83;;
13891;SDS011;7016;48.172;8.058;2022-08-19T05:24:11;36.05;;;27.00;;
13891;SDS011;7016;48.172;8.058;2022-08-19T05:26:40;35.90;;;27.58;;
13891;SDS011;7016;48.172;8.058;2022-08-19T05:29:07;36.33;;;27.95;;
13891;SDS011;7016;48.172;8.058;2022-08-19T05:31:34;38.83;;;28.10;;
13891;SDS011;7016;48.172;8.058;2022-08-19T05:34:01;36.80;;;28.63;;
13891;SDS011;7016;48.172;8.058;2022-08-19T05:36:28;42.03;;;29.67;;
13891;SDS011;7016;48.172;8.058;2022-08-19T05:38:59;36.17;;;28.27;;
13891;SDS011;7016;48.172;8.058;2022-08-19T05:41:25;36.80;;;28.50;;
13891;SDS011;7016;48.172;8.058;2022-08-19T05:44:00;40.72;;;28.77;;
13891;SDS011;7016;48.172;8.058;2022-08-19T05:46:31;38.00;;;28.13;;
13891;SDS011;7016;48.172;8.058;2022-08-19T05:48:57;42.38;;;31.00;;
13891;SDS011;7016;48.172;8.058;2022-08-19T05:51:23;36.30;;;28.10;;
13891;SDS011;7016;48.172;8.058;2022-08-19T05:53:49;37.15;;;27.88;;
13891;SDS011;7016;48.172;8.058;2022-08-19T05:56:16;37.65;;;28.33;;
13891;SDS011;7016;48.172;8.058;2022-08-19T05:58:43;34.20;;;26.75;;
13891;SDS011;7016;48.172;8.058;2022-08-19T06:01:14;37.63;;;28.67;;
13891;SDS011;7016;48.172;8.058;2022-08-19T06:03:41;37.13;;;28.75;;
13891;SDS011;7016;48.172;8.058;2022-08-19T06:06:09;55.90;;;35.88;;
13891;SDS011;7016;48.172;8.058;2022-08-19T06:08:36;40.95;;;30.58;;
13891;SDS011;7016;48.172;8.058;2022-08-19T06:13:49;43.45;;;30.25;;
13891;SDS011;7016;48.172;8.058;2022-08-19T06:16:18;39.33;;;29.88;;
13891;SDS011;7016;48.172;8.058;2022-08-19T06:18:49;27.17;;;21.45;;
13891;SDS011;7016;48.172;8.058;2022-08-19T06:21:17;33.90;;;27.13;;
13891;SDS011;7016;48.172;8.058;2022-08-19T06:23:47;36.42;;;27.88;;
13891;SDS011;7016;48.172;8.058;2022-08-19T06:26:13;36.38;;;24.33;;
13891;SDS011;7016;48.172;8.058;2022-08-19T06:28:40;43.22;;;31.52;;
13891;SDS011;7016;48.172;8.058;2022-08-19T06:31:10;43.75;;;31.05;;
13891;SDS011;7016;48.172;8.058;2022-08-19T06:33:36;26.45;;;21.45;;
13891;SDS011;7016;48.172;8.058;2022-08-19T06:36:02;38.42;;;29.67;;
13891;SDS011;7016;48.172;8.058;2022-08-19T06:38:28;30.75;;;24.25;;
13891;SDS011;7016;48.172;8.058;2022-08-19T06:41:01;38.08;;;24.80;;
13891;SDS011;7016;48.172;8.058;2022-08-19T06:43:28;39.70;;;28.13;;
13891;SDS011;7016;48.172;8.058;2022-08-19T06:45:54;24.95;;;20.27;;
13891;SDS011;7016;48.172;8.058;2022-08-19T06:48:19;41.63;;;28.85;;
13891;SDS011;7016;48.172;8.058;2022-08-19T06:50:45;40.08;;;28.48;;
13891;SDS011;7016;48.172;8.058;2022-08-19T06:53:12;35.90;;;27.92;;
13891;SDS011;7016;48.172;8.058;2022-08-19T06:55:38;35.22;;;27.35;;
13891;SDS011;7016;48.172;8.058;2022-08-19T06:58:05;25.77;;;21.90;;
13891;SDS011;7016;48.172;8.058;2022-08-19T07:00:31;32.63;;;27.25;;
13891;SDS011;7016;48.172;8.058;2022-08-19T07:02:57;33.97;;;25.60;;
13891;SDS011;7016;48.172;8.058;2022-08-19T07:05:23;36.55;;;27.85;;
13891;SDS011;7016;48.172;8.058;2022-08-19T07:07:49;32.15;;;22.38;;
13891;SDS011;7016;48.172;8.058;2022-08-19T07:10:15;40.55;;;30.00;;
13891;SDS011;7016;48.172;8.058;2022-08-19T07:12:40;39.67;;;29.58;;
13891;SDS011;7016;48.172;8.058;2022-08-19T07:15:06;42.90;;;31.08;;
13891;SDS011;7016;48.172;8.058;2022-08-19T07:17:34;38.33;;;29.70;;
13891;SDS011;7016;48.172;8.058;2022-08-19T07:20:04;46.20;;;31.65;;
13891;SDS011;7016;48.172;8.058;2022-08-19T07:22:33;36.15;;;29.48;;
13891;SDS011;7016;48.172;8.058;2022-08-19T07:24:59;46.92;;;33.22;;
13891;SDS011;7016;48.172;8.058;2022-08-19T07:27:25;44.85;;;31.55;;
13891;SDS011;7016;48.172;8.058;2022-08-19T07:29:52;46.53;;;33.10;;
13891;SDS011;7016;48.172;8.058;2022-08-19T07:32:18;47.17;;;32.90;;
13891;SDS011;7016;48.172;8.058;2022-08-19T07:34:44;43.38;;;31.48;;
13891;SDS011;7016;48.172;8.058;2022-08-19T07:37:11;39.33;;;31.50;;
13891;SDS011;7016;48.172;8.058;2022-08-19T07:39:40;40.88;;;30.30;;
13891;SDS011;7016;48.172;8.058;2022-08-19T07:42:07;43.42;;;33.58;;
13891;SDS011;7016;48.172;8.058;2022-08-19T07:44:33;42.47;;;31.50;;
13891;SDS011;7016;48.172;8.058;2022-08-19T07:47:03;46.05;;;34.72;;
13891;SDS011;7016;48.172;8.058;2022-08-19T07:49:29;48.13;;;34.55;;
13891;SDS011;7016;48.172;8.058;2022-08-19T07:51:59;49.28;;;35.83;;
13891;SDS011;7016;48.172;8.058;2022-08-19T07:54:29;48.72;;;35.97;;
13891;SDS011;7016;48.172;8.058;2022-08-19T07:56:56;45.63;;;34.83;;
13891;SDS011;7016;48.172;8.058;2022-08-19T07:59:22;43.10;;;35.10;;
13891;SDS011;7016;48.172;8.058;2022-08-19T08:01:49;44.05;;;33.35;;
13891;SDS011;7016;48.172;8.058;2022-08-19T08:04:16;32.95;;;26.25;;
13891;SDS011;7016;48.172;8.058;2022-08-19T08:07:00;48.55;;;33.67;;
13891;SDS011;7016;48.172;8.058;2022-08-19T08:09:45;44.17;;;33.85;;
13891;SDS011;7016;48.172;8.058;2022-08-19T08:12:13;43.47;;;34.50;;
13891;SDS011;7016;48.172;8.058;2022-08-19T08:14:43;42.38;;;34.00;;
13891;SDS011;7016;48.172;8.058;2022-08-19T08:17:11;46.42;;;33.63;;
13891;SDS011;7016;48.172;8.058;2022-08-19T08:19:38;43.40;;;33.85;;
13891;SDS011;7016;48.172;8.058;2022-08-19T08:22:06;48.90;;;36.85;;
13891;SDS011;7016;48.172;8.058;2022-08-19T08:24:32;48.80;;;36.15;;
13891;SDS011;7016;48.172;8.058;2022-08-19T08:26:59;45.75;;;34.72;;
13891;SDS011;7016;48.172;8.058;2022-08-19T08:29:29;42.30;;;33.95;;
13891;SDS011;7016;48.172;8.058;2022-08-19T08:31:56;44.20;;;34.50;;
13891;SDS011;7016;48.172;8.058;2022-08-19T08:34:22;42.88;;;34.40;;
13891;SDS011;7016;48.172;8.058;2022-08-19T08:36:48;44.75;;;34.55;;
13891;SDS011;7016;48.172;8.058;2022-08-19T08:39:16;44.85;;;35.83;;
13891;SDS011;7016;48.172;8.058;2022-08-19T08:44:41;50.97;;;37.08;;
13891;SDS011;7016;48.172;8.058;2022-08-19T08:47:18;48.15;;;36.38;;
13891;SDS011;7016;48.172;8.058;2022-08-19T08:52:31;47.45;;;36.13;;
13891;SDS011;7016;48.172;8.058;2022-08-19T08:55:15;41.40;;;34.58;;
13891;SDS011;7016;48.172;8.058;2022-08-19T09:00:18;43.45;;;35.13;;
13891;SDS011;7016;48.172;8.058;2022-08-19T09:02:59;41.85;;;33.67;;
13891;SDS011;7016;48.172;8.058;2022-08-19T09:08:28;45.53;;;34.85;;
13891;SDS011;7016;48.172;8.058;2022-08-19T09:10:58;40.80;;;31.65;;
13891;SDS011;7016;48.172;8.058;2022-08-19T09:16:20;43.55;;;34.60;;
13891;SDS011;7016;48.172;8.058;2022-08-19T09:18:51;47.63;;;35.53;;
13891;SDS011;7016;48.172;8.058;2022-08-19T09:21:22;43.50;;;33.38;;
13891;SDS011;7016;48.172;8.058;2022-08-19T09:23:50;45.80;;;35.97;;
13891;SDS011;7016;48.172;8.058;2022-08-19T09:26:17;44.03;;;34.90;;
13891;SDS011;7016;48.172;8.058;2022-08-19T09:28:46;41.67;;;34.08;;
13891;SDS011;7016;48.172;8.058;2022-08-19T09:31:14;48.55;;;33.17;;
13891;SDS011;7016;48.172;8.058;2022-08-19T09:33:44;44.22;;;34.13;;
13891;SDS011;7016;48.172;8.058;2022-08-19T09:36:12;41.25;;;32.85;;
13891;SDS011;7016;48.172;8.058;2022-08-19T09:38:39;45.38;;;34.42;;
13891;SDS011;7016;48.172;8.058;2022-08-19T09:41:07;45.67;;;36.53;;
13891;SDS011;7016;48.172;8.058;2022-08-19T09:43:41;46.47;;;36.80;;
13891;SDS011;7016;48.172;8.058;2022-08-19T09:46:09;42.05;;;34.88;;
13891;SDS011;7016;48.172;8.058;2022-08-19T09:48:36;44.53;;;35.40;;
13891;SDS011;7016;48.172;8.058;2022-08-19T09:51:03;39.15;;;32.90;;
13891;SDS011;7016;48.172;8.058;2022-08-19T09:53:33;42.97;;;34.20;;
13891;SDS011;7016;48.172;8.058;2022-08-19T09:56:00;41.75;;;33.38;;
13891;SDS011;7016;48.172;8.058;2022-08-19T09:58:26;43.88;;;34.47;;
13891;SDS011;7016;48.172;8.058;2022-08-19T10:00:54;50.05;;;37.20;;
13891;SDS011;7016;48.172;8.058;2022-08-19T10:03:21;43.00;;;35.45;;
13891;SDS011;7016;48.172;8.058;2022-08-19T10:05:47;43.38;;;36.42;;
13891;SDS011;7016;48.172;8.058;2022-08-19T10:08:14;41.75;;;36.10;;
13891;SDS011;7016;48.172;8.058;2022-08-19T10:10:42;42.97;;;35.47;;
13891;SDS011;7016;48.172;8.058;2022-08-19T10:13:09;48.10;;;36.03;;
13891;SDS011;7016;48.172;8.058;2022-08-19T10:15:35;44.33;;;35.63;;
13891;SDS011;7016;48.172;8.058;2022-08-19T10:18:00;43.08;;;35.28;;
13891;SDS011;7016;48.172;8.058;2022-08-19T10:20:26;48.78;;;36.30;;
13891;SDS011;7016;48.172;8.058;2022-08-19T10:22:52;44.88;;;35.40;;
13891;SDS011;7016;48.172;8.058;2022-08-19T10:25:17;44.38;;;36.20;;
13891;SDS011;7016;48.172;8.058;2022-08-19T10:27:43;49.55;;;37.85;;
13891;SDS011;7016;48.172;8.058;2022-08-19T10:30:09;43.80;;;35.15;;
13891;SDS011;7016;48.172;8.058;2022-08-19T10:32:35;47.65;;;37.30;;
13891;SDS011;7016;48.172;8.058;2022-08-19T10:35:02;43.80;;;35.35;;
13891;SDS011;7016;48.172;8.058;2022-08-19T10:37:30;47.83;;;37.15;;
13891;SDS011;7016;48.172;8.058;2022-08-19T10:39:58;49.70;;;35.85;;
13891;SDS011;7016;48.172;8.058;2022-08-19T10:42:24;45.05;;;36.90;;
13891;SDS011;7016;48.172;8.058;2022-08-19T10:44:49;44.47;;;35.20;;
13891;SDS011;7016;48.172;8.058;2022-08-19T10:47:15;46.00;;;35.08;;
13891;SDS011;7016;48.172;8.058;2022-08-19T10:49:41;46.88;;;35.50;;
13891;SDS011;7016;48.172;8.058;2022-08-19T10:52:25;39.33;;;35.00;;
13891;SDS011;7016;48.172;8.058;2022-08-19T10:55:01;46.40;;;34.78;;
13891;SDS011;7016;48.172;8.058;2022-08-19T10:57:46;45.45;;;31.45;;
13891;SDS011;7016;48.172;8.058;2022-08-19T11:00:12;40.60;;;31.88;;
13891;SDS011;7016;48.172;8.058;2022-08-19T11:02:38;41.20;;;33.00;;
13891;SDS011;7016;48.172;8.058;2022-08-19T11:05:04;41.28;;;33.42;;
13891;SDS011;7016;48.172;8.058;2022-08-19T11:07:31;41.85;;;31.92;;
13891;SDS011;7016;48.172;8.058;2022-08-19T11:09:57;39.17;;;30.50;;
13891;SDS011;7016;48.172;8.058;2022-08-19T11:12:23;38.30;;;30.73;;
13891;SDS011;7016;48.172;8.058;2022-08-19T11:14:49;40.50;;;33.47;;
13891;SDS011;7016;48.172;8.058;2022-08-19T11:17:15;42.70;;;32.88;;
13891;SDS011;7016;48.172;8.058;2022-08-19T11:19:41;39.35;;;31.88;;
13891;SDS011;7016;48.172;8.058;2022-08-19T11:22:08;38.83;;;31.95;;
13891;SDS011;7016;48.172;8.058;2022-08-19T11:24:35;38.30;;;31.70;;
13891;SDS011;7016;48.172;8.058;2022-08-19T11:27:03;40.05;;;31.38;;
13891;SDS011;7016;48.172;8.058;2022-08-19T11:29:32;46.67;;;32.55;;
13891;SDS011;7016;48.172;8.058;2022-08-19T11:31:59;38.97;;;31.55;;
13891;SDS011;7016;48.172;8.058;2022-08-19T11:34:26;41.83;;;32.17;;
13891;SDS011;7016;48.172;8.058;2022-08-19T11:36:53;37.67;;;31.08;;
13891;SDS011;7016;48.172;8.058;2022-08-19T11:39:23;40.40;;;30.13;;
13891;SDS011;7016;48.172;8.058;2022-08-19T11:41:50;38.33;;;30.95;;
13891;SDS011;7016;48.172;8.058;2022-08-19T11:44:16;38.67;;;32.50;;
13891;SDS011;7016;48.172;8.058;2022-08-19T11:46:42;38.83;;;32.20;;
13891;SDS011;7016;48.172;8.058;2022-08-19T11:49:13;38.60;;;31.55;;
13891;SDS011;7016;48.172;8.058;2022-08-19T11:51:40;40.53;;;32.08;;
13891;SDS011;7016;48.172;8.058;2022-08-19T11:54:08;48.42;;;34.28;;
13891;SDS011;7016;48.172;8.058;2022-08-19T11:56:36;44.53;;;34.20;;
13891;SDS011;7016;48.172;8.058;2022-08-19T11:59:02;45.35;;;34.13;;
13891;SDS011;7016;48.172;8.058;2022-08-19T12:01:29;43.90;;;34.05;;
13891;SDS011;7016;48.172;8.058;2022-08-19T12:03:55;44.40;;;33.13;;
13891;SDS011;7016;48.172;8.058;2022-08-19T12:06:23;38.50;;;31.02;;
13891;SDS011;7016;48.172;8.058;2022-08-19T12:08:53;37.10;;;30.67;;
13891;SDS011;7016;48.172;8.058;2022-08-19T12:11:20;37.47;;;30.65;;
13891;SDS011;7016;48.172;8.058;2022-08-19T12:13:45;36.45;;;30.35;;
13891;SDS011;7016;48.172;8.058;2022-08-19T12:16:20;38.72;;;29.85;;
13891;SDS011;7016;48.172;8.058;2022-08-19T12:18:48;40.13;;;30.90;;
13891;SDS011;7016;48.172;8.058;2022-08-19T12:21:18;34.92;;;28.20;;
13891;SDS011;7016;48.172;8.058;2022-08-19T12:23:47;29.65;;;22.67;;
13891;SDS011;7016;48.172;8.058;2022-08-19T12:26:14;29.33;;;22.60;;
13891;SDS011;7016;48.172;8.058;2022-08-19T12:28:41;23.88;;;18.05;;
13891;SDS011;7016;48.172;8.058;2022-08-19T12:31:07;19.58;;;16.20;;
13891;SDS011;7016;48.172;8.058;2022-08-19T12:33:36;21.08;;;17.20;;
13891;SDS011;7016;48.172;8.058;2022-08-19T12:36:03;25.27;;;18.17;;
13891;SDS011;7016;48.172;8.058;2022-08-19T12:38:31;21.65;;;17.58;;
13891;SDS011;7016;48.172;8.058;2022-08-19T12:40:58;23.45;;;17.80;;
13891;SDS011;7016;48.172;8.058;2022-08-19T12:43:24;23.52;;;18.15;;
13891;SDS011;7016;48.172;8.058;2022-08-19T12:45:49;22.75;;;18.65;;
13891;SDS011;7016;48.172;8.058;2022-08-19T12:48:16;23.23;;;15.75;;
13891;SDS011;7016;48.172;8.058;2022-08-19T12:50:42;22.73;;;18.17;;
13891;SDS011;7016;48.172;8.058;2022-08-19T12:53:11;19.67;;;16.38;;
13891;SDS011;7016;48.172;8.058;2022-08-19T12:55:37;21.20;;;16.33;;
13891;SDS011;7016;48.172;8.058;2022-08-19T12:58:03;20.52;;;14.95;;
13891;SDS011;7016;48.172;8.058;2022-08-19T13:00:29;19.40;;;13.75;;
13891;SDS011;7016;48.172;8.058;2022-08-19T13:02:57;19.45;;;16.85;;
13891;SDS011;7016;48.172;8.058;2022-08-19T13:05:26;18.75;;;14.35;;
13891;SDS011;7016;48.172;8.058;2022-08-19T13:07:54;20.20;;;14.48;;
13891;SDS011;7016;48.172;8.058;2022-08-19T13:10:22;14.00;;;12.32;;
13891;SDS011;7016;48.172;8.058;2022-08-19T13:12:50;16.95;;;12.60;;
13891;SDS011;7016;48.172;8.058;2022-08-19T13:15:17;14.60;;;11.27;;
13891;SDS011;7016;48.172;8.058;2022-08-19T13:17:46;13.40;;;10.57;;
13891;SDS011;7016;48.172;8.058;2022-08-19T13:20:14;11.40;;;10.00;;
13891;SDS011;7016;48.172;8.058;2022-08-19T13:22:42;11.63;;;9.55;;
13891;SDS011;7016;48.172;8.058;2022-08-19T13:25:10;13.13;;;10.52;;
13891;SDS011;7016;48.172;8.058;2022-08-19T13:27:36;12.27;;;10.98;;
13891;SDS011;7016;48.172;8.058;2022-08-19T13:30:03;11.50;;;10.25;;
13891;SDS011;7016;48.172;8.058;2022-08-19T13:32:49;12.88;;;11.18;;
13891;SDS011;7016;48.172;8.058;2022-08-19T13:35:33;13.93;;;10.15;;
13891;SDS011;7016;48.172;8.058;2022-08-19T13:37:59;17.83;;;11.40;;
13891;SDS011;7016;48.172;8.058;2022-08-19T13:40:30;15.38;;;11.57;;
13891;SDS011;7016;48.172;8.058;2022-08-19T13:42:58;17.13;;;9.68;;
13891;SDS011;7016;48.172;8.058;2022-08-19T13:45:25;15.30;;;9.27;;
13891;SDS011;7016;48.172;8.058;2022-08-19T13:47:53;10.95;;;9.75;;
13891;SDS011;7016;48.172;8.058;2022-08-19T13:50:22;15.02;;;10.60;;
13891;SDS011;7016;48.172;8.058;2022-08-19T13:52:51;15.23;;;11.65;;
13891;SDS011;7016;48.172;8.058;2022-08-19T13:55:18;12.80;;;10.82;;
13891;SDS011;7016;48.172;8.058;2022-08-19T13:57:43;14.18;;;11.80;;
13891;SDS011;7016;48.172;8.058;2022-08-19T14:00:12;13.82;;;11.93;;
13891;SDS011;7016;48.172;8.058;2022-08-19T14:02:40;17.50;;;12.32;;
13891;SDS011;7016;48.172;8.058;2022-08-19T14:05:07;13.60;;;12.20;;
13891;SDS011;7016;48.172;8.058;2022-08-19T14:07:35;13.85;;;12.23;;
13891;SDS011;7016;48.172;8.058;2022-08-19T14:10:02;13.90;;;11.07;;
13891;SDS011;7016;48.172;8.058;2022-08-19T14:12:29;12.35;;;11.05;;
13891;SDS011;7016;48.172;8.058;2022-08-19T14:14:57;16.33;;;11.60;;
13891;SDS011;7016;48.172;8.058;2022-08-19T14:17:23;16.80;;;12.63;;
13891;SDS011;7016;48.172;8.058;2022-08-19T14:19:50;12.82;;;10.20;;
13891;SDS011;7016;48.172;8.058;2022-08-19T14:22:22;16.65;;;12.80;;
13891;SDS011;7016;48.172;8.058;2022-08-19T14:24:48;15.32;;;13.77;;
13891;SDS011;7016;48.172;8.058;2022-08-19T14:27:15;16.80;;;12.80;;
13891;SDS011;7016;48.172;8.058;2022-08-19T14:29:41;17.05;;;13.48;;
13891;SDS011;7016;48.172;8.058;2022-08-19T14:32:07;17.38;;;14.02;;
13891;SDS011;7016;48.172;8.058;2022-08-19T14:34:33;16.20;;;12.57;;
13891;SDS011;7016;48.172;8.058;2022-08-19T14:36:59;13.90;;;12.57;;
13891;SDS011;7016;48.172;8.058;2022-08-19T14:39:24;14.63;;;12.50;;
13891;SDS011;7016;48.172;8.058;2022-08-19T14:41:50;15.00;;;12.20;;
13891;SDS011;7016;48.172;8.058;2022-08-19T14:44:16;17.63;;;13.73;;
13891;SDS011;7016;48.172;8.058;2022-08-19T14:46:42;18.20;;;14.65;;
13891;SDS011;7016;48.172;8.058;2022-08-19T14:49:10;17.60;;;14.57;;
13891;SDS011;7016;48.172;8.058;2022-08-19T14:51:35;16.33;;;12.77;;
13891;SDS011;7016;48.172;8.058;2022-08-19T14:54:01;19.00;;;13.05;;
13891;SDS011;7016;48.172;8.058;2022-08-19T14:56:28;16.48;;;13.07;;
13891;SDS011;7016;48.172;8.058;2022-08-19T14:58:55;17.73;;;14.15;;
13891;SDS011;7016;48.172;8.058;2022-08-19T15:01:24;18.42;;;13.13;;
13891;SDS011;7016;48.172;8.058;2022-08-19T15:03:50;14.77;;;13.20;;